createdAt,value
2022-08-14T00:02:18.638Z,49.40
2022-08-14T00:04:48.051Z,49.40
2022-08-14T00:07:16.264Z,49.50
2022-08-14T00:10:01.808Z,49.40
2022-08-14T00:12:39.593Z,49.50
2022-08-14T00:15:14.980Z,49.60
2022-08-14T00:17:48.086Z,49.70
2022-08-14T00:20:30.795Z,49.70
2022-08-14T00:23:12.548Z,49.70
2022-08-14T00:25:53.697Z,49.90
2022-08-14T00:28:32.801Z,49.90
2022-08-14T00:31:04.564Z,50.00
2022-08-14T00:33:52.496Z,49.90
2022-08-14T00:36:35.580Z,50.00
2022-08-14T00:39:18.271Z,50.10
2022-08-14T00:41:47.581Z,50.10
2022-08-14T00:44:21.502Z,50.30
2022-08-14T00:47:00.910Z,50.40
2022-08-14T00:49:30.193Z,50.30
2022-08-14T00:52:00.029Z,50.40
2022-08-14T00:54:29.021Z,50.50
2022-08-14T00:56:58.679Z,50.60
2022-08-14T00:59:30.216Z,50.70
2022-08-14T01:02:01.597Z,50.90
2022-08-14T01:04:38.001Z,50.80
2022-08-14T01:07:21.860Z,50.80
2022-08-14T01:09:52.863Z,50.90
2022-08-14T01:12:27.238Z,51.00
2022-08-14T01:15:02.066Z,51.00
2022-08-14T01:17:49.831Z,51.10
2022-08-14T01:20:39.831Z,51.20
2022-08-14T01:23:16.260Z,51.10
2022-08-14T01:25:48.620Z,51.20
2022-08-14T01:28:46.271Z,51.20
2022-08-14T01:31:08.694Z,51.30
2022-08-14T01:35:15.767Z,51.30
2022-08-14T01:36:38.075Z,51.30
2022-08-14T01:39:12.787Z,51.40
2022-08-14T01:41:43.430Z,51.60
2022-08-14T01:44:32.501Z,51.50
2022-08-14T01:47:05.924Z,51.70
2022-08-14T01:49:45.737Z,51.60
2022-08-14T01:52:34.548Z,51.60
2022-08-14T01:55:06.773Z,51.60
2022-08-14T01:57:49.399Z,51.70
2022-08-14T02:00:27.791Z,51.90
2022-08-14T02:02:57.690Z,51.80
2022-08-14T02:05:34.943Z,51.90
2022-08-14T02:08:09.861Z,52.10
2022-08-14T02:10:47.339Z,52.10
2022-08-14T02:13:19.900Z,52.20
2022-08-14T02:15:50.330Z,52.20
2022-08-14T02:18:19.343Z,52.30
2022-08-14T02:20:51.425Z,52.30
2022-08-14T02:23:28.878Z,52.30
2022-08-14T02:26:24.878Z,52.40
2022-08-14T02:28:58.466Z,52.40
2022-08-14T02:31:42.570Z,52.50
2022-08-14T02:34:21.909Z,52.60
2022-08-14T02:37:03.693Z,52.50
2022-08-14T02:39:38.873Z,52.60
2022-08-14T02:42:13.059Z,52.80
2022-08-14T02:44:49.064Z,52.70
2022-08-14T02:47:20.489Z,52.70
2022-08-14T02:49:54.984Z,52.70
2022-08-14T02:52:56.410Z,52.80
2022-08-14T02:55:15.633Z,52.80
2022-08-14T02:58:03.280Z,52.80
2022-08-14T03:00:40.113Z,52.90
2022-08-14T03:03:09.262Z,53.00
2022-08-14T03:05:41.602Z,52.90
2022-08-14T03:08:15.852Z,53.10
2022-08-14T03:10:49.310Z,53.10
2022-08-14T03:13:21.383Z,53.10
2022-08-14T03:15:56.110Z,53.20
2022-08-14T03:18:31.339Z,53.30
2022-08-14T03:21:05.106Z,53.40
2022-08-14T03:23:38.306Z,53.40
2022-08-14T03:26:12.680Z,53.50
2022-08-14T03:28:50.180Z,53.60
2022-08-14T03:31:27.852Z,53.70
2022-08-14T03:34:00.096Z,53.60
2022-08-14T03:37:50.763Z,53.70
2022-08-14T03:39:24.162Z,53.80
2022-08-14T03:41:55.199Z,53.90
2022-08-14T03:45:19.079Z,54.00
2022-08-14T03:47:15.478Z,53.90
2022-08-14T03:49:49.968Z,53.90
2022-08-14T03:52:39.116Z,53.90
2022-08-14T03:55:10.702Z,54.00
2022-08-14T03:57:41.619Z,54.00
2022-08-14T04:00:41.032Z,54.00
2022-08-14T04:03:04.613Z,54.10
2022-08-14T04:05:43.458Z,54.00
2022-08-14T04:08:30.055Z,54.10
2022-08-14T04:11:01.150Z,54.10
2022-08-14T04:13:31.929Z,54.10
2022-08-14T04:16:06.706Z,54.10
2022-08-14T04:18:36.513Z,54.00
2022-08-14T04:21:05.848Z,54.10
2022-08-14T04:23:35.423Z,54.00
2022-08-14T04:26:08.333Z,54.10
2022-08-14T04:29:08.218Z,54.20
2022-08-14T04:33:01.461Z,54.20
2022-08-14T04:34:24.028Z,54.40
2022-08-14T04:37:24.502Z,54.40
2022-08-14T04:40:13.086Z,54.50
2022-08-14T04:43:01.567Z,54.50
2022-08-14T04:45:37.323Z,54.50
2022-08-14T04:48:36.626Z,54.70
2022-08-14T04:51:06.621Z,54.90
2022-08-14T04:53:42.772Z,54.80
2022-08-14T04:56:31.712Z,54.80
2022-08-14T04:59:09.906Z,55.00
2022-08-14T05:01:40.412Z,55.00
2022-08-14T05:04:16.016Z,54.90
2022-08-14T05:06:45.213Z,55.10
2022-08-14T05:09:14.566Z,55.10
2022-08-14T05:11:44.233Z,55.20
2022-08-14T05:14:34.612Z,55.20
2022-08-14T05:17:02.847Z,55.40
2022-08-14T05:19:33.138Z,55.30
2022-08-14T05:22:17.053Z,55.50
2022-08-14T05:24:51.321Z,55.40
2022-08-14T05:27:22.269Z,55.40
2022-08-14T05:29:56.861Z,55.60
2022-08-14T05:32:27.152Z,55.60
2022-08-14T05:34:59.187Z,55.80
2022-08-14T05:37:29.672Z,55.90
2022-08-14T05:40:00.919Z,55.90
2022-08-14T05:42:32.092Z,56.00
2022-08-14T05:45:04.669Z,56.00
2022-08-14T05:47:38.950Z,56.50
2022-08-14T05:50:18.646Z,56.20
2022-08-14T05:52:50.911Z,56.40
2022-08-14T05:55:21.987Z,56.30
2022-08-14T05:57:54.800Z,56.30
2022-08-14T06:00:34.774Z,56.40
2022-08-14T06:03:08.524Z,56.50
2022-08-14T06:05:39.238Z,55.80
2022-08-14T06:08:31.115Z,56.50
2022-08-14T06:11:07.291Z,56.70
2022-08-14T06:13:41.112Z,56.60
2022-08-14T06:16:18.718Z,56.60
2022-08-14T06:18:52.511Z,56.60
2022-08-14T06:21:23.438Z,56.70
2022-08-14T06:23:51.947Z,56.70
2022-08-14T06:26:22.342Z,56.80
2022-08-14T06:28:52.005Z,56.80
2022-08-14T06:31:21.425Z,56.90
2022-08-14T06:35:03.796Z,57.20
2022-08-14T06:36:41.756Z,57.10
2022-08-14T06:39:10.805Z,57.10
2022-08-14T06:41:59.443Z,57.10
2022-08-14T06:44:30.371Z,57.10
2022-08-14T06:47:01.728Z,57.10
2022-08-14T06:49:30.542Z,57.10
2022-08-14T06:52:00.688Z,57.00
2022-08-14T06:54:31.025Z,57.00
2022-08-14T06:56:59.956Z,56.90
2022-08-14T06:59:28.200Z,56.80
2022-08-14T07:02:17.721Z,57.00
2022-08-14T07:05:06.225Z,56.90
2022-08-14T07:07:41.386Z,57.00
2022-08-14T07:10:16.811Z,57.40
2022-08-14T07:12:54.782Z,56.40
2022-08-14T07:15:33.702Z,56.50
2022-08-14T07:18:04.883Z,56.50
2022-08-14T07:20:37.406Z,56.90
2022-08-14T07:23:19.799Z,56.40
2022-08-14T07:25:51.679Z,55.80
2022-08-14T07:28:26.957Z,55.20
2022-08-14T07:31:04.665Z,54.70
2022-08-14T07:33:37.959Z,54.90
2022-08-14T07:36:26.499Z,54.30
2022-08-14T07:39:00.316Z,54.00
2022-08-14T07:41:31.415Z,53.20
2022-08-14T07:44:32.685Z,53.30
2022-08-14T07:46:52.098Z,53.00
2022-08-14T07:49:20.969Z,52.80
2022-08-14T07:51:52.987Z,52.70
2022-08-14T07:54:23.359Z,52.20
2022-08-14T07:56:58.971Z,52.20
2022-08-14T07:59:41.096Z,52.10
2022-08-14T08:02:19.011Z,52.60
2022-08-14T08:04:53.173Z,53.20
2022-08-14T08:07:29.863Z,52.40
2022-08-14T08:10:46.292Z,52.00
2022-08-14T08:13:16.234Z,51.90
2022-08-14T08:15:46.537Z,51.60
2022-08-14T08:18:20.325Z,52.40
2022-08-14T08:20:59.542Z,51.90
2022-08-14T08:23:40.268Z,51.80
2022-08-14T08:26:13.364Z,52.00
2022-08-14T08:28:43.844Z,51.00
2022-08-14T08:31:13.731Z,51.30
2022-08-14T08:33:44.882Z,51.00
2022-08-14T08:36:18.675Z,50.70
2022-08-14T08:39:16.526Z,50.40
2022-08-14T08:41:44.229Z,50.50
2022-08-14T08:44:17.222Z,50.20
2022-08-14T08:47:05.777Z,51.20
2022-08-14T08:49:52.725Z,51.10
2022-08-14T08:52:31.553Z,50.90
2022-08-14T08:55:04.739Z,51.10
2022-08-14T08:57:38.098Z,50.90
2022-08-14T09:00:24.443Z,50.00
2022-08-14T09:02:57.692Z,50.40
2022-08-14T09:05:26.982Z,51.30
2022-08-14T09:07:56.688Z,50.40
2022-08-14T09:10:27.247Z,51.40
2022-08-14T09:12:57.933Z,50.60
2022-08-14T09:15:26.135Z,49.80
2022-08-14T09:18:05.556Z,50.10
2022-08-14T09:20:34.207Z,50.00
2022-08-14T09:23:05.886Z,49.40
2022-08-14T09:26:00.547Z,49.70
2022-08-14T09:28:26.488Z,49.90
2022-08-14T09:30:58.234Z,49.90
2022-08-14T09:34:27.373Z,49.30
2022-08-14T09:37:24.249Z,49.80
2022-08-14T09:40:04.696Z,48.60
2022-08-14T09:42:50.089Z,48.90
2022-08-14T09:45:24.194Z,48.80
2022-08-14T09:47:54.481Z,49.20
2022-08-14T09:50:28.016Z,48.60
2022-08-14T09:53:03.788Z,49.50
2022-08-14T09:55:41.366Z,48.40
2022-08-14T09:58:19.145Z,48.30
2022-08-14T10:00:50.641Z,48.00
2022-08-14T10:03:33.265Z,47.80
2022-08-14T10:06:09.410Z,48.00
2022-08-14T10:08:51.173Z,47.30
2022-08-14T10:11:23.481Z,48.10
2022-08-14T10:13:55.977Z,48.20
2022-08-14T10:16:33.612Z,48.30
2022-08-14T10:19:09.489Z,48.20
2022-08-14T10:21:58.465Z,48.20
2022-08-14T10:24:31.380Z,48.30
2022-08-14T10:27:05.528Z,48.40
2022-08-14T10:29:36.135Z,48.20
2022-08-14T10:32:17.834Z,48.20
2022-08-14T10:34:52.618Z,48.00
2022-08-14T10:37:22.980Z,47.80
2022-08-14T10:40:05.509Z,47.60
2022-08-14T10:42:40.814Z,47.20
2022-08-14T10:45:21.511Z,47.20
2022-08-14T10:48:07.624Z,46.80
2022-08-14T10:50:46.608Z,46.90
2022-08-14T10:53:16.072Z,47.10
2022-08-14T10:55:45.991Z,47.00
2022-08-14T10:58:17.359Z,46.80
2022-08-14T11:00:58.878Z,46.80
2022-08-14T11:03:56.780Z,46.40
2022-08-14T11:06:27.229Z,46.40
2022-08-14T11:08:56.142Z,46.40
2022-08-14T11:11:28.493Z,46.10
2022-08-14T11:14:09.441Z,46.00
2022-08-14T11:16:40.693Z,45.90
2022-08-14T11:19:13.275Z,45.70
2022-08-14T11:21:45.877Z,45.40
2022-08-14T11:24:53.844Z,45.40
2022-08-14T11:27:07.266Z,45.20
2022-08-14T11:29:36.797Z,45.00
2022-08-14T11:32:06.672Z,44.70
2022-08-14T11:34:39.854Z,44.90
2022-08-14T11:37:21.513Z,44.80
2022-08-14T11:40:00.376Z,44.70
2022-08-14T11:42:56.299Z,44.80
2022-08-14T11:45:19.134Z,44.80
2022-08-14T11:48:13.487Z,45.00
2022-08-14T11:50:42.507Z,44.70
2022-08-14T11:53:21.990Z,44.60
2022-08-14T11:55:57.147Z,44.20
2022-08-14T11:58:29.515Z,44.10
2022-08-14T12:01:04.398Z,44.30
2022-08-14T12:03:46.832Z,44.30
2022-08-14T12:06:28.744Z,43.90
2022-08-14T12:09:08.485Z,43.90
2022-08-14T12:11:44.326Z,43.80
2022-08-14T12:14:30.690Z,43.60
2022-08-14T12:17:12.277Z,43.40
2022-08-14T12:19:50.705Z,43.10
2022-08-14T12:22:33.236Z,42.60
2022-08-14T12:25:08.429Z,42.60
2022-08-14T12:27:46.705Z,42.50
2022-08-14T12:30:39.525Z,42.10
2022-08-14T12:33:23.765Z,41.60
2022-08-14T12:35:57.523Z,41.90
2022-08-14T12:38:39.078Z,41.90
2022-08-14T12:41:20.631Z,41.80
2022-08-14T12:43:53.706Z,41.60
2022-08-14T12:46:27.529Z,41.40
2022-08-14T12:48:57.830Z,41.40
2022-08-14T12:51:28.598Z,41.10
2022-08-14T12:54:01.765Z,40.90
2022-08-14T12:56:33.717Z,40.80
2022-08-14T12:59:03.471Z,40.60
2022-08-14T13:01:56.778Z,40.90
2022-08-14T13:04:23.656Z,40.70
2022-08-14T13:06:54.290Z,40.60
2022-08-14T13:09:35.722Z,40.30
2022-08-14T13:12:32.242Z,40.20
2022-08-14T13:15:00.229Z,40.00
2022-08-14T13:17:29.178Z,40.00
2022-08-14T13:20:10.144Z,40.00
2022-08-14T13:22:42.556Z,40.20
2022-08-14T13:25:15.893Z,40.40
2022-08-14T13:27:47.182Z,40.20
2022-08-14T13:30:23.490Z,40.20
2022-08-14T13:32:53.592Z,40.30
2022-08-14T13:35:22.956Z,40.20
2022-08-14T13:37:52.457Z,39.90
2022-08-14T13:40:26.669Z,39.80
2022-08-14T13:42:57.038Z,39.20
2022-08-14T13:45:33.974Z,39.10
2022-08-14T13:48:18.528Z,39.00
2022-08-14T13:51:02.351Z,38.80
2022-08-14T13:53:35.069Z,38.60
2022-08-14T13:56:14.805Z,38.40
2022-08-14T13:58:59.781Z,38.00
2022-08-14T14:01:32.956Z,37.70
2022-08-14T14:04:06.480Z,37.40
2022-08-14T14:06:40.657Z,37.50
2022-08-14T14:09:11.264Z,37.20
2022-08-14T14:11:40.892Z,37.10
2022-08-14T14:14:29.745Z,37.90
2022-08-14T14:17:01.495Z,36.80
2022-08-14T14:19:34.049Z,36.80
2022-08-14T14:22:02.985Z,36.30
2022-08-14T14:24:34.756Z,36.10
2022-08-14T14:27:30.043Z,36.00
2022-08-14T14:29:59.609Z,35.80
2022-08-14T14:32:31.971Z,35.40
2022-08-14T14:35:05.651Z,35.40
2022-08-14T14:37:37.424Z,35.20
2022-08-14T14:40:52.064Z,35.40
2022-08-14T14:43:05.467Z,35.30
2022-08-14T14:45:34.556Z,35.20
2022-08-14T14:48:09.488Z,35.40
2022-08-14T14:50:39.770Z,35.30
2022-08-14T14:53:12.700Z,35.50
2022-08-14T14:56:48.201Z,35.70
2022-08-14T14:58:33.596Z,35.40
2022-08-14T15:01:04.826Z,35.60
2022-08-14T15:03:38.480Z,35.70
2022-08-14T15:06:08.324Z,35.80
2022-08-14T15:08:55.726Z,35.70
2022-08-14T15:11:26.684Z,35.80
2022-08-14T15:14:00.550Z,35.40
2022-08-14T15:16:28.819Z,35.30
2022-08-14T15:18:57.052Z,35.70
2022-08-14T15:21:26.010Z,35.80
2022-08-14T15:23:56.187Z,35.70
2022-08-14T15:26:32.012Z,35.70
2022-08-14T15:29:05.649Z,35.70
2022-08-14T15:31:36.519Z,35.60
2022-08-14T15:34:44.530Z,35.40
2022-08-14T15:37:06.803Z,35.60
2022-08-14T15:39:42.054Z,35.60
2022-08-14T15:42:15.566Z,35.70
2022-08-14T15:44:57.895Z,35.70
2022-08-14T15:47:31.117Z,35.80
2022-08-14T15:50:01.408Z,35.70
2022-08-14T15:52:34.360Z,35.90
2022-08-14T15:55:07.099Z,35.80
2022-08-14T15:57:36.521Z,35.90
2022-08-14T16:00:43.611Z,35.80
2022-08-14T16:03:17.584Z,35.80
2022-08-14T16:05:46.528Z,35.80
2022-08-14T16:08:27.264Z,35.90
2022-08-14T16:10:58.416Z,35.80
2022-08-14T16:13:41.348Z,35.80
2022-08-14T16:16:49.033Z,35.80
2022-08-14T16:19:10.704Z,35.60
2022-08-14T16:22:02.605Z,35.50
2022-08-14T16:24:33.744Z,35.70
2022-08-14T16:27:03.217Z,35.60
2022-08-14T16:29:36.371Z,35.70
2022-08-14T16:32:33.475Z,35.70
2022-08-14T16:34:58.291Z,35.80
2022-08-14T16:37:30.408Z,35.80
2022-08-14T16:40:01.579Z,36.50
2022-08-14T16:42:39.994Z,35.60
2022-08-14T16:45:26.381Z,35.90
2022-08-14T16:47:57.618Z,35.90
2022-08-14T16:50:43.570Z,35.90
2022-08-14T16:53:17.978Z,35.80
2022-08-14T16:55:53.455Z,35.90
2022-08-14T16:58:29.630Z,35.90
2022-08-14T17:01:24.968Z,35.90
2022-08-14T17:04:01.108Z,35.90
2022-08-14T17:06:47.919Z,35.60
2022-08-14T17:09:29.346Z,35.70
2022-08-14T17:12:07.490Z,35.80
2022-08-14T17:15:03.847Z,35.70
2022-08-14T17:17:58.054Z,35.80
2022-08-14T17:20:53.187Z,35.60
2022-08-14T17:23:18.180Z,35.70
2022-08-14T17:25:49.229Z,35.80
2022-08-14T17:28:51.362Z,36.90
2022-08-14T17:31:08.619Z,36.10
2022-08-14T17:33:40.761Z,36.00
2022-08-14T17:36:21.411Z,36.20
2022-08-14T17:39:06.776Z,36.00
2022-08-14T17:41:43.643Z,36.20
2022-08-14T17:44:19.872Z,36.40
2022-08-14T17:46:55.352Z,36.40
2022-08-14T17:49:27.176Z,36.30
2022-08-14T17:52:07.761Z,36.10
2022-08-14T17:54:52.980Z,36.30
2022-08-14T17:57:28.733Z,36.30
2022-08-14T17:59:59.022Z,36.60
2022-08-14T18:02:30.901Z,37.00
2022-08-14T18:05:03.135Z,37.20
2022-08-14T18:07:59.483Z,37.60
2022-08-14T18:10:52.736Z,37.60
2022-08-14T18:13:13.979Z,37.70
2022-08-14T18:15:51.137Z,37.70
2022-08-14T18:18:20.326Z,37.90
2022-08-14T18:21:24.692Z,38.00
2022-08-14T18:23:50.975Z,38.40
2022-08-14T18:26:37.698Z,38.30
2022-08-14T18:29:14.904Z,38.20
2022-08-14T18:31:45.431Z,38.40
2022-08-14T18:34:31.229Z,38.50
2022-08-14T18:37:17.500Z,38.70
2022-08-14T18:40:01.956Z,38.60
2022-08-14T18:42:45.677Z,38.60
2022-08-14T18:45:18.594Z,38.80
2022-08-14T18:48:06.436Z,38.70
2022-08-14T18:50:47.196Z,38.90
2022-08-14T18:53:17.715Z,39.00
2022-08-14T18:55:54.502Z,38.90
2022-08-14T18:58:31.424Z,39.10
2022-08-14T19:01:04.298Z,39.00
2022-08-14T19:03:55.047Z,39.60
2022-08-14T19:06:56.328Z,38.90
2022-08-14T19:09:52.099Z,38.70
2022-08-14T19:13:11.477Z,39.00
2022-08-14T19:15:42.884Z,39.10
2022-08-14T19:18:26.502Z,39.20
2022-08-14T19:20:59.915Z,39.30
2022-08-14T19:23:42.624Z,39.30
2022-08-14T19:26:36.173Z,39.50
2022-08-14T19:29:36.295Z,40.10
2022-08-14T19:32:40.489Z,39.50
2022-08-14T19:35:55.125Z,39.50
2022-08-14T19:38:54.018Z,39.50
2022-08-14T19:41:29.723Z,39.50
2022-08-14T19:44:10.156Z,39.50
2022-08-14T19:47:00.055Z,39.70
2022-08-14T19:50:24.284Z,39.70
2022-08-14T19:52:25.466Z,39.80
2022-08-14T19:54:54.817Z,39.80
2022-08-14T19:57:24.909Z,40.00
2022-08-14T20:00:05.481Z,40.00
2022-08-14T20:02:37.387Z,40.10
2022-08-14T20:05:11.345Z,40.00
2022-08-14T20:07:59.247Z,40.30
2022-08-14T20:11:08.126Z,40.20
2022-08-14T20:13:32.181Z,40.30
2022-08-14T20:16:12.777Z,40.30
2022-08-14T20:18:50.638Z,40.30
2022-08-14T20:21:21.965Z,40.30
2022-08-14T20:24:31.061Z,40.50
2022-08-14T20:27:33.409Z,40.70
2022-08-14T20:30:29.854Z,40.60
2022-08-14T20:33:00.620Z,40.60
2022-08-14T20:35:35.852Z,40.70
2022-08-14T20:38:28.750Z,40.80
2022-08-14T20:40:58.879Z,41.60
2022-08-14T20:43:47.344Z,41.00
2022-08-14T20:46:23.588Z,41.10
2022-08-14T20:49:00.037Z,41.00
2022-08-14T20:51:37.522Z,41.20
2022-08-14T20:54:10.435Z,41.50
2022-08-14T20:56:41.537Z,41.30
2022-08-14T20:59:18.210Z,41.50
2022-08-14T21:01:55.333Z,41.40
2022-08-14T21:04:27.775Z,41.60
2022-08-14T21:07:25.215Z,41.50
2022-08-14T21:10:06.246Z,41.60
2022-08-14T21:12:37.387Z,41.70
2022-08-14T21:15:25.716Z,41.80
2022-08-14T21:18:02.179Z,41.80
2022-08-14T21:20:30.310Z,41.90
2022-08-14T21:23:01.306Z,41.90
2022-08-14T21:25:31.600Z,42.00
2022-08-14T21:28:04.039Z,42.10
2022-08-14T21:30:51.785Z,42.20
2022-08-14T21:33:23.450Z,42.20
2022-08-14T21:35:55.569Z,42.30
2022-08-14T21:38:31.332Z,42.30
2022-08-14T21:41:41.657Z,42.50
2022-08-14T21:44:18.107Z,42.50
2022-08-14T21:46:51.089Z,42.60
2022-08-14T21:49:25.629Z,42.70
2022-08-14T21:52:51.833Z,42.70
2022-08-14T21:55:09.074Z,42.80
2022-08-14T21:57:56.323Z,42.90
2022-08-14T22:00:34.679Z,42.80
2022-08-14T22:03:05.841Z,42.90
2022-08-14T22:05:36.247Z,43.00
2022-08-14T22:08:07.524Z,43.10
2022-08-14T22:10:41.975Z,43.20
2022-08-14T22:13:11.518Z,43.10
2022-08-14T22:15:43.749Z,43.10
2022-08-14T22:18:20.557Z,43.20
2022-08-14T22:20:53.727Z,43.30
2022-08-14T22:23:27.131Z,43.40
2022-08-14T22:25:56.883Z,44.00
2022-08-14T22:28:33.120Z,43.50
2022-08-14T22:31:03.927Z,43.60
2022-08-14T22:33:40.150Z,43.60
2022-08-14T22:36:25.806Z,43.60
2022-08-14T22:38:54.985Z,43.70
2022-08-14T22:41:29.488Z,43.70
2022-08-14T22:44:04.941Z,43.80
2022-08-14T22:46:35.672Z,43.80
2022-08-14T22:49:15.363Z,43.80
2022-08-14T22:51:57.096Z,43.80
2022-08-14T22:54:52.925Z,44.00
2022-08-14T22:57:15.533Z,44.00
2022-08-14T22:59:44.825Z,44.00
2022-08-14T23:02:22.364Z,44.00
2022-08-14T23:04:59.357Z,44.10
2022-08-14T23:08:56.351Z,44.10
2022-08-14T23:10:32.567Z,44.30
2022-08-14T23:13:03.651Z,44.30
2022-08-14T23:15:34.039Z,44.30
2022-08-14T23:18:03.593Z,44.50
2022-08-14T23:20:33.790Z,44.50
2022-08-14T23:23:13.148Z,44.50
2022-08-14T23:26:00.092Z,44.70
2022-08-14T23:28:34.348Z,44.60
2022-08-14T23:31:26.573Z,44.60
2022-08-14T23:34:07.590Z,44.60
2022-08-14T23:36:53.642Z,44.60
2022-08-14T23:39:29.948Z,44.60
2022-08-14T23:42:02.420Z,44.80
2022-08-14T23:44:35.066Z,44.80
2022-08-14T23:47:12.188Z,44.80
2022-08-14T23:50:00.143Z,44.90
2022-08-14T23:53:04.202Z,44.80
2022-08-14T23:55:21.953Z,44.90
2022-08-14T23:57:57.837Z,45.00
